Main page
METAR-TAF:

METAR-TAF

Airports :

Rahim Yar Khan, Pakistan

Shaikh Zayed International Airport

latitude: 28-23-02N, longitude: 70-16-47E, elevation: 83 m

METAR: missing

Time: 00:16 (19:16 UTC)

Forecast

The report was made 3 hours and 16 minutes ago, at 16:00 UTC
Forecast valid from 21 at 18 UTC to 22 at 12 UTC
Wind 5 kt from the Southeast
Visibility: 3000 m
smoke

TAF: OPRK 211600Z 2118/2212 13005KT 3000 FU NSC TN17/2201Z TX36/2210Z

Weather observations and forecasts of more than 4000 airports (METAR and TAF reports).

The available stations are represented by yellow and red dots on the map.

Hover mouse over dot to see the name of the station.

Then click to see weather observations and forecasts.

To change the map : click on the green buttons with a black cross to zoom in, on the green button with a dash to zoom out, or on the green arrows for adjacent maps.


METAR-TAF: